weather.gov     
National Weather Service

Terminal Aerodrome Forecast
NWS Homepage
This page is being discontinued on March 12, 2014.
The same data is available at this site. Please update your bookmarks.
Thank you, and we apologize for the inconvenience.
Please send an email to SR-SRH.Webmaster@noaa.gov with any concerns.


Current Version
Previous Version:    01  02  03  04  05  06  07  08  09  10  11  12  13  14  15  16  17  18  19  20  21  22  23  24  25  26  27  28  29  30  
   31  32  33  34  35  36  37  38  39  40  41  42  43  
[Printable]
271
FTUS43 KDTX 011136
TAFDET
TAF
KDET 011136Z 0112/0212 03010KT 1SM -SN OVC007
     FM012000 04014KT 1/2SM SN OVC008
     FM012200 04018KT 1/4SM +SN VV002
     FM020400 04018KT 1SM -SN OVC008
     FM020600 03018KT 2SM -SN OVC012
     FM021100 35015KT P6SM OVC020=


271
FTUS43 KDTX 011136
TAFDET
TAF
KDET 011136Z 0112/0212 03010KT 1SM -SN OVC007
     FM012000 04014KT 1/2SM SN OVC008
     FM012200 04018KT 1/4SM +SN VV002
     FM020400 04018KT 1SM -SN OVC008
     FM020600 03018KT 2SM -SN OVC012
     FM021100 35015KT P6SM OVC020=




U.S. Dept. of Commerce
NOAA National Weather Service
1325 East West Highway
Silver Spring, MD 20910
E-mail: w-nws.webmaster@noaa.gov
Page last modified: May 16, 2007
NATIONAL WEATHER SERVICE: for Safety, for Work, for Fun - FOR LIFE